Time;durP1;ratioP1;P1;durP2;ratioP2;P2;SDS_P1;SDS_P2;PMS_P1;PMS_P2;Temp;Humidity;BMP_temperature;BMP_pressure;BME280_temperature;BME280_humidity;BME280_pressure;Samples;Min_cycle;Max_cycle;Signal;HPM_P1;HPM_P2
2021/05/03 00:00:39;;;;;;;3.20;1.77;;;4.80;99.90;;;;;;4986747;28;21005;-74
2021/05/03 00:03:06;;;;;;;2.63;1.73;;;4.90;99.90;;;;;;5003514;28;20028;-77
2021/05/03 00:05:31;;;;;;;3.33;1.63;;;4.70;99.90;;;;;;5012578;28;20022;-79
2021/05/03 00:07:57;;;;;;;3.28;2.28;;;4.70;99.90;;;;;;5008713;28;20042;-75
2021/05/03 00:10:23;;;;;;;5.80;2.63;;;4.70;99.90;;;;;;4994817;28;20022;-78
2021/05/03 00:12:49;;;;;;;5.05;2.17;;;4.70;99.90;;;;;;5005809;28;20029;-73
2021/05/03 00:15:16;;;;;;;10.10;3.13;;;4.70;99.90;;;;;;4993279;28;20060;-73
2021/05/03 00:17:42;;;;;;;3.50;2.63;;;4.70;99.90;;;;;;5012234;28;20030;-75
2021/05/03 00:20:08;;;;;;;6.07;3.05;;;4.70;99.90;;;;;;5012283;28;20037;-80
2021/05/03 00:22:34;;;;;;;5.10;3.15;;;4.70;99.90;;;;;;4991444;28;20034;-75
2021/05/03 00:25:00;;;;;;;6.03;3.80;;;4.80;99.90;;;;;;4994160;28;20030;-78
2021/05/03 00:27:26;;;;;;;8.55;3.00;;;4.80;99.90;;;;;;4990707;28;20432;-75
2021/05/03 00:29:52;;;;;;;5.87;3.40;;;4.90;99.90;;;;;;5012121;28;20050;-77
2021/05/03 00:32:18;;;;;;;4.45;2.97;;;4.90;99.90;;;;;;5011914;28;20030;-80
2021/05/03 00:34:43;;;;;;;6.57;3.35;;;4.80;99.90;;;;;;4994192;28;20113;-76
2021/05/03 00:37:09;;;;;;;5.57;3.03;;;4.80;99.90;;;;;;5011180;28;20026;-74
2021/05/03 00:39:35;;;;;;;7.97;3.40;;;4.80;99.90;;;;;;4991394;28;20440;-77
2021/05/03 00:42:00;;;;;;;7.17;3.40;;;4.80;99.90;;;;;;5001350;28;20022;-76
2021/05/03 00:44:27;;;;;;;5.90;3.40;;;4.80;99.90;;;;;;4994252;28;20022;-75
2021/05/03 00:46:55;;;;;;;;;;;4.90;99.90;;;;;;4991148;28;20041;-74
2021/05/03 00:49:21;;;;;;;5.60;3.25;;;4.90;99.90;;;;;;4991722;28;19906;-78
2021/05/03 00:51:47;;;;;;;5.85;3.25;;;4.90;99.90;;;;;;5005120;28;20037;-78
2021/05/03 00:54:12;;;;;;;5.37;3.50;;;4.90;99.90;;;;;;4996185;28;20324;-74
2021/05/03 00:56:38;;;;;;;6.70;2.83;;;4.90;99.90;;;;;;5005248;28;20030;-74
2021/05/03 00:59:04;;;;;;;4.83;2.93;;;4.90;99.90;;;;;;5014144;28;20033;-74
2021/05/03 01:01:30;;;;;;;5.87;3.70;;;4.80;99.90;;;;;;5012224;28;20032;-78
2021/05/03 01:03:56;;;;;;;8.60;4.03;;;4.80;99.90;;;;;;4998498;28;20097;-78
2021/05/03 01:06:22;;;;;;;6.22;3.95;;;4.90;99.90;;;;;;5008649;28;20047;-78
2021/05/03 01:08:48;;;;;;;4.80;3.25;;;4.90;99.90;;;;;;4999926;28;20031;-75
2021/05/03 01:11:13;;;;;;;6.13;3.78;;;4.90;99.90;;;;;;5014251;28;20400;-77
2021/05/03 01:13:40;;;;;;;5.53;3.17;;;4.90;99.90;;;;;;5016630;28;20057;-73
2021/05/03 01:16:06;;;;;;;6.78;3.70;;;4.90;99.90;;;;;;5010910;28;20042;-73
2021/05/03 01:18:36;;;;;;;4.73;2.97;;;4.90;99.90;;;;;;4991676;28;20042;-77
2021/05/03 01:21:02;;;;;;;5.82;3.30;;;4.90;99.90;;;;;;5003639;28;20037;-76
2021/05/03 01:23:28;;;;;;;6.78;3.03;;;4.90;99.90;;;;;;5006599;28;20448;-74
2021/05/03 01:25:53;;;;;;;4.20;2.63;;;4.90;99.90;;;;;;5017528;28;20034;-76
2021/05/03 01:28:19;;;;;;;7.87;2.90;;;4.90;99.90;;;;;;5017580;28;20057;-77
2021/05/03 01:30:47;;;;;;;4.33;2.40;;;4.90;99.90;;;;;;5016493;28;20037;-74
2021/05/03 01:33:15;;;;;;;5.68;2.75;;;4.90;99.90;;;;;;5006240;28;20026;-74
2021/05/03 01:35:43;;;;;;;5.55;2.78;;;4.90;99.90;;;;;;4995156;28;20033;-80
2021/05/03 01:38:10;;;;;;;5.30;3.05;;;4.90;99.90;;;;;;5009529;28;20172;-74
2021/05/03 01:40:38;;;;;;;3.50;2.05;;;4.90;99.90;;;;;;5014527;28;20282;-75
2021/05/03 01:43:30;;;;;;;3.40;2.28;;;5.00;99.90;;;;;;4996286;28;20026;-75
2021/05/03 01:45:58;;;;;;;4.53;2.60;;;4.90;99.90;;;;;;4994956;28;20037;-74
2021/05/03 01:48:26;;;;;;;3.85;2.47;;;4.90;99.90;;;;;;4999896;28;20034;-76
2021/05/03 01:50:54;;;;;;;3.00;1.85;;;4.90;99.90;;;;;;4998672;28;20092;-75
2021/05/03 01:53:21;;;;;;;4.60;2.53;;;4.90;99.90;;;;;;4996380;28;20026;-75
2021/05/03 01:55:52;;;;;;;3.25;2.17;;;4.90;99.90;;;;;;5012072;28;20639;-73
2021/05/03 01:58:18;;;;;;;2.78;2.30;;;4.90;99.90;;;;;;4999424;28;20045;-74
2021/05/03 02:00:44;;;;;;;2.95;1.95;;;4.80;99.90;;;;;;5011942;28;20018;-73
2021/05/03 02:03:28;;;;;;;6.57;2.43;;;4.80;99.90;;;;;;5016451;28;20037;-73
2021/05/03 02:05:54;;;;;;;4.40;2.53;;;4.80;99.90;;;;;;4990662;28;20039;-73
2021/05/03 02:08:20;;;;;;;7.37;3.17;;;4.90;99.90;;;;;;5013152;28;20027;-74
2021/05/03 02:10:47;;;;;;;6.22;2.38;;;4.90;99.90;;;;;;5008517;28;20278;-74
2021/05/03 02:13:13;;;;;;;3.33;2.47;;;4.90;99.90;;;;;;5015040;28;20046;-74
2021/05/03 02:15:39;;;;;;;3.97;2.72;;;5.00;99.90;;;;;;5016014;28;20034;-78
2021/05/03 02:18:05;;;;;;;6.17;2.77;;;5.00;99.90;;;;;;4993629;28;20032;-78
2021/05/03 02:20:32;;;;;;;9.02;3.35;;;5.00;99.90;;;;;;4997475;28;20033;-79
2021/05/03 02:22:58;;;;;;;3.92;2.50;;;5.00;99.90;;;;;;5008042;28;20305;-78
2021/05/03 02:25:24;;;;;;;4.40;2.70;;;5.00;99.90;;;;;;5015595;28;20645;-77
2021/05/03 02:27:50;;;;;;;4.83;2.90;;;5.10;99.90;;;;;;5016472;28;20061;-78
2021/05/03 02:30:16;;;;;;;3.50;2.53;;;5.10;99.90;;;;;;5010114;28;20085;-78
2021/05/03 02:32:44;;;;;;;3.90;2.70;;;5.10;99.90;;;;;;4998955;28;20116;-74
2021/05/03 02:35:18;;;;;;;5.18;2.60;;;5.10;99.90;;;;;;5014433;28;20050;-76
2021/05/03 02:37:46;;;;;;;5.28;2.38;;;5.10;99.90;;;;;;4998979;28;20042;-74
2021/05/03 02:40:13;;;;;;;5.38;2.90;;;5.10;99.90;;;;;;4998732;28;20026;-75
2021/05/03 02:42:39;;;;;;;5.32;3.55;;;5.10;99.90;;;;;;4994780;28;20026;-73
2021/05/03 02:45:05;;;;;;;8.60;4.30;;;5.20;99.90;;;;;;5010203;28;20033;-74
2021/05/03 02:47:31;;;;;;;5.38;3.10;;;5.10;99.90;;;;;;5016400;28;20092;-78
2021/05/03 02:49:57;;;;;;;7.23;3.60;;;5.10;99.90;;;;;;5003991;28;20117;-77
2021/05/03 02:52:23;;;;;;;6.73;4.30;;;5.20;99.90;;;;;;4997167;28;20033;-75
2021/05/03 02:54:49;;;;;;;5.87;3.60;;;5.20;99.90;;;;;;5010397;28;20029;-73
2021/05/03 02:57:14;;;;;;;6.73;3.70;;;5.20;99.90;;;;;;5007049;28;20317;-78
2021/05/03 02:59:40;;;;;;;7.70;3.83;;;5.30;99.90;;;;;;5014334;28;20018;-77
2021/05/03 03:02:07;;;;;;;7.13;4.63;;;5.30;99.90;;;;;;5014454;28;20033;-73
2021/05/03 03:04:33;;;;;;;;;;;5.30;99.90;;;;;;5015880;28;20372;-74
2021/05/03 03:06:58;;;;;;;7.20;3.80;;;5.20;99.90;;;;;;5009416;28;19961;-74
2021/05/03 03:09:24;;;;;;;9.82;3.40;;;5.20;99.90;;;;;;5006356;28;20085;-76
2021/05/03 03:11:50;;;;;;;8.37;4.47;;;5.20;99.90;;;;;;5015487;28;20058;-73
2021/05/03 03:14:16;;;;;;;8.47;4.83;;;5.20;99.90;;;;;;5007393;28;20375;-73
2021/05/03 03:16:42;;;;;;;7.03;5.30;;;5.30;99.90;;;;;;4995428;28;20033;-81
2021/05/03 03:19:08;;;;;;;8.70;4.43;;;5.30;99.90;;;;;;5001842;28;20026;-78
2021/05/03 03:21:33;;;;;;;9.60;4.97;;;5.30;99.90;;;;;;5005433;28;20084;-74
2021/05/03 03:23:59;;;;;;;9.10;5.40;;;5.30;99.90;;;;;;4995272;28;20053;-77
2021/05/03 03:26:25;;;;;;;11.13;5.47;;;5.40;99.90;;;;;;4996574;28;20053;-73
2021/05/03 03:28:50;;;;;;;10.57;4.65;;;5.40;99.90;;;;;;5013153;28;20076;-74
2021/05/03 03:31:16;;;;;;;15.45;5.95;;;5.40;99.90;;;;;;5010314;28;20026;-75
2021/05/03 03:33:43;;;;;;;12.33;5.60;;;5.40;99.90;;;;;;5014357;28;20038;-77
2021/05/03 03:36:08;;;;;;;9.32;5.47;;;5.40;99.90;;;;;;5011985;28;20336;-74
2021/05/03 03:38:34;;;;;;;9.63;5.40;;;5.40;99.90;;;;;;4997514;28;20038;-79
2021/05/03 03:41:00;;;;;;;16.20;5.57;;;5.40;99.90;;;;;;4994645;28;20356;-78
2021/05/03 03:43:26;;;;;;;13.03;6.00;;;5.40;99.90;;;;;;4987259;28;20023;-75
2021/05/03 03:45:52;;;;;;;10.77;4.80;;;5.40;99.90;;;;;;4986909;28;20026;-79
2021/05/03 03:48:17;;;;;;;8.70;4.82;;;5.40;99.90;;;;;;5013199;28;20314;-78
2021/05/03 03:50:43;;;;;;;14.23;6.00;;;5.40;99.90;;;;;;4996795;28;20476;-74
2021/05/03 03:53:09;;;;;;;11.52;5.53;;;5.40;99.90;;;;;;4994459;28;20438;-78
2021/05/03 03:55:35;;;;;;;11.27;4.93;;;5.40;99.90;;;;;;5004837;28;20352;-81
2021/05/03 03:58:01;;;;;;;10.38;5.50;;;5.40;99.90;;;;;;5006041;28;20038;-74
2021/05/03 04:00:28;;;;;;;11.83;5.87;;;5.40;99.90;;;;;;5004691;28;20500;-77
2021/05/03 04:02:54;;;;;;;10.60;5.55;;;5.40;99.90;;;;;;4999687;28;20057;-75
2021/05/03 04:10:57;;;;;;;15.05;6.82;;;5.40;99.90;;;;;;5009995;28;20498;-74
2021/05/03 04:26:14;;;;;;;13.07;6.65;;;5.40;99.90;;;;;;5012768;28;20026;-80
2021/05/03 04:28:40;;;;;;;14.23;8.05;;;5.50;99.90;;;;;;5012344;28;20069;-81
2021/05/03 04:31:06;;;;;;;23.92;7.97;;;5.50;99.90;;;;;;5000601;28;20081;-74
2021/05/03 04:33:32;;;;;;;14.30;7.82;;;5.50;99.90;;;;;;5012194;28;20029;-74
2021/05/03 04:35:59;;;;;;;13.05;8.48;;;5.50;99.90;;;;;;4996573;28;20109;-74
2021/05/03 04:38:25;;;;;;;20.48;8.23;;;5.60;99.90;;;;;;4994202;28;20041;-74
2021/05/03 04:40:51;;;;;;;18.60;7.60;;;5.60;99.90;;;;;;5003929;28;20041;-74
2021/05/03 04:43:18;;;;;;;19.43;8.63;;;5.60;99.90;;;;;;5006854;28;20109;-82
2021/05/03 04:45:43;;;;;;;15.40;8.25;;;5.60;99.90;;;;;;5013426;28;20076;-75
2021/05/03 04:48:09;;;;;;;18.87;9.50;;;5.60;99.90;;;;;;5011689;28;20038;-78
2021/05/03 04:50:35;;;;;;;21.07;9.93;;;5.60;99.90;;;;;;5005719;28;20051;-74
2021/05/03 04:53:00;;;;;;;17.77;8.87;;;5.60;99.90;;;;;;4995598;28;20300;-77
2021/05/03 04:55:26;;;;;;;21.33;8.07;;;5.70;99.90;;;;;;5013195;28;20064;-75
2021/05/03 04:57:52;;;;;;;17.55;8.77;;;5.70;99.90;;;;;;4983955;28;20030;-74
2021/05/03 05:00:18;;;;;;;17.70;8.60;;;5.70;99.90;;;;;;5011203;28;20026;-77
2021/05/03 05:02:44;;;;;;;14.77;8.38;;;5.70;99.90;;;;;;5012259;28;20104;-74
2021/05/03 05:05:11;;;;;;;16.30;9.70;;;5.70;99.90;;;;;;4995099;28;20113;-74
2021/05/03 05:07:37;;;;;;;16.75;9.02;;;5.80;99.90;;;;;;4992263;28;20052;-74
2021/05/03 05:10:03;;;;;;;15.13;8.27;;;5.90;99.90;;;;;;5012063;28;20460;-74
2021/05/03 05:12:29;;;;;;;17.73;9.98;;;5.90;99.90;;;;;;5007159;28;20044;-73
2021/05/03 05:14:55;;;;;;;15.90;8.97;;;6.00;99.90;;;;;;4994370;28;20043;-74
2021/05/03 05:17:20;;;;;;;19.97;7.97;;;6.00;99.90;;;;;;5008740;28;20030;-74
2021/05/03 05:19:49;;;;;;;18.77;8.87;;;6.00;99.90;;;;;;5006439;28;20097;-80
2021/05/03 05:22:16;;;;;;;17.45;8.40;;;6.00;99.90;;;;;;5013428;28;20018;-74
2021/05/03 05:24:42;;;;;;;19.75;7.13;;;6.10;99.90;;;;;;4992439;28;20444;-75
2021/05/03 05:27:08;;;;;;;17.63;8.63;;;6.10;99.90;;;;;;5009461;28;20068;-74
2021/05/03 05:29:34;;;;;;;15.82;7.82;;;6.10;99.90;;;;;;4994878;28;20050;-77
2021/05/03 05:32:00;;;;;;;15.67;7.70;;;6.10;99.90;;;;;;5012477;28;20037;-80
2021/05/03 05:34:26;;;;;;;12.23;7.45;;;6.10;99.90;;;;;;5011695;28;20546;-78
2021/05/03 05:36:52;;;;;;;18.03;7.37;;;6.10;99.90;;;;;;5008735;28;20026;-81
2021/05/03 05:39:17;;;;;;;16.60;7.53;;;6.20;99.90;;;;;;4991980;28;20417;-77
2021/05/03 05:41:43;;;;;;;20.02;7.88;;;6.20;99.90;;;;;;4994924;28;20033;-74
2021/05/03 05:44:10;;;;;;;20.92;8.07;;;6.20;99.90;;;;;;5011588;28;20065;-79
2021/05/03 05:46:36;;;;;;;22.85;7.95;;;6.20;99.90;;;;;;4990341;28;20030;-77
2021/05/03 05:49:02;;;;;;;18.10;8.43;;;6.30;99.90;;;;;;5002520;28;20034;-75
2021/05/03 05:51:29;;;;;;;18.45;7.22;;;6.30;99.90;;;;;;4994734;28;20034;-75
2021/05/03 05:53:55;;;;;;;13.90;7.55;;;6.30;99.90;;;;;;4993996;28;20263;-79
2021/05/03 05:56:21;;;;;;;12.57;7.67;;;6.40;99.90;;;;;;5011956;28;20329;-77
2021/05/03 05:58:47;;;;;;;14.90;8.13;;;6.40;99.90;;;;;;4989469;28;20362;-75
2021/05/03 06:01:12;;;;;;;15.60;7.97;;;6.40;99.90;;;;;;5008822;28;20467;-74
2021/05/03 06:03:39;;;;;;;12.87;7.73;;;6.40;99.90;;;;;;5016864;28;20034;-76
2021/05/03 06:06:05;;;;;;;16.05;8.15;;;6.40;99.90;;;;;;5007330;28;20022;-78
2021/05/03 06:08:30;;;;;;;17.37;8.13;;;6.50;99.90;;;;;;4996489;28;20030;-79
2021/05/03 06:10:56;;;;;;;15.27;7.50;;;6.50;99.90;;;;;;5009902;28;20124;-74
2021/05/03 06:13:22;;;;;;;15.63;8.53;;;6.50;99.90;;;;;;5010725;28;20033;-75
2021/05/03 06:15:47;;;;;;;17.17;8.18;;;6.50;99.90;;;;;;5013279;28;20409;-74
2021/05/03 06:18:13;;;;;;;18.92;8.85;;;6.60;99.90;;;;;;5015216;28;20033;-76
2021/05/03 06:20:39;;;;;;;15.80;8.32;;;6.70;99.90;;;;;;5013354;28;20107;-74
2021/05/03 06:23:07;;;;;;;15.90;9.17;;;6.70;99.90;;;;;;5014692;28;20033;-74
2021/05/03 06:25:33;;;;;;;14.73;8.68;;;6.70;99.90;;;;;;5014673;28;20033;-74
2021/05/03 06:28:00;;;;;;;14.40;8.55;;;6.70;99.90;;;;;;5015693;28;20029;-75
2021/05/03 06:30:27;;;;;;;15.32;8.57;;;6.80;99.90;;;;;;4992652;28;20506;-74
2021/05/03 06:32:53;;;;;;;16.00;8.20;;;6.90;99.90;;;;;;5010701;28;20037;-74
2021/05/03 06:35:19;;;;;;;16.83;8.85;;;6.90;99.90;;;;;;4994863;28;20136;-74
2021/05/03 06:37:45;;;;;;;19.17;8.70;;;7.00;99.90;;;;;;4997372;28;20298;-74
2021/05/03 06:40:12;;;;;;;20.03;8.77;;;7.10;99.90;;;;;;4998261;28;20037;-79
2021/05/03 06:42:38;;;;;;;;;;;7.20;99.90;;;;;;5016303;28;20028;-75
2021/05/03 06:45:04;;;;;;;15.52;7.80;;;7.30;99.90;;;;;;5004735;28;19921;-75
2021/05/03 06:47:31;;;;;;;15.40;8.20;;;7.40;99.90;;;;;;5013019;28;20038;-73
2021/05/03 06:49:56;;;;;;;21.90;8.00;;;7.40;99.90;;;;;;5014305;28;20105;-74
2021/05/03 06:52:22;;;;;;;18.70;8.98;;;7.50;99.90;;;;;;5013510;28;20113;-74
2021/05/03 06:54:48;;;;;;;17.55;8.13;;;7.60;99.90;;;;;;5012355;28;20624;-74
2021/05/03 06:57:16;;;;;;;25.77;10.90;;;7.60;99.90;;;;;;4992594;28;20034;-74
2021/05/03 06:59:42;;;;;;;17.70;8.43;;;7.70;99.90;;;;;;5009255;28;20025;-75
2021/05/03 07:02:09;;;;;;;21.93;10.20;;;7.80;99.90;;;;;;5011714;28;20026;-79
2021/05/03 07:04:35;;;;;;;20.27;8.88;;;7.90;99.90;;;;;;5015587;28;20052;-74
2021/05/03 07:07:01;;;;;;;15.37;9.17;;;8.00;99.90;;;;;;5005450;28;20069;-74
2021/05/03 07:09:27;;;;;;;26.50;10.55;;;8.10;99.90;;;;;;5009797;28;20034;-79
2021/05/03 07:11:53;;;;;;;19.93;9.77;;;8.30;99.90;;;;;;5011940;28;20030;-74
2021/05/03 07:14:19;;;;;;;18.15;8.93;;;8.40;99.90;;;;;;4993124;28;20084;-75
2021/05/03 07:16:45;;;;;;;18.63;9.47;;;8.50;99.90;;;;;;5011010;28;20037;-74
2021/05/03 07:19:10;;;;;;;20.77;10.47;;;8.50;99.90;;;;;;5015142;28;20440;-76
2021/05/03 07:21:37;;;;;;;21.20;10.07;;;8.50;99.90;;;;;;4996107;28;20041;-75
2021/05/03 07:24:04;;;;;;;17.70;9.68;;;8.50;99.90;;;;;;4996617;28;20034;-74
2021/05/03 07:26:29;;;;;;;23.15;10.43;;;8.50;99.90;;;;;;4994113;28;20037;-74
2021/05/03 07:28:55;;;;;;;27.53;10.57;;;8.50;99.90;;;;;;5014097;28;20050;-75
2021/05/03 07:31:21;;;;;;;23.07;12.23;;;8.60;99.90;;;;;;5013549;28;20042;-75
2021/05/03 07:33:47;;;;;;;20.30;11.27;;;8.80;99.90;;;;;;5008110;28;20084;-78
2021/05/03 07:36:13;;;;;;;39.00;12.27;;;9.10;99.90;;;;;;5014547;28;20033;-74
2021/05/03 07:38:38;;;;;;;22.70;11.40;;;9.40;99.90;;;;;;5014765;28;20026;-74
2021/05/03 07:41:04;;;;;;;20.73;11.93;;;9.70;99.90;;;;;;4997730;28;20435;-74
2021/05/03 07:43:30;;;;;;;21.50;10.17;;;10.20;99.90;;;;;;4995845;28;20026;-75
2021/05/03 07:45:56;;;;;;;26.93;11.73;;;10.60;99.90;;;;;;4997430;28;20336;-75
2021/05/03 07:48:22;;;;;;;23.73;11.10;;;11.00;99.90;;;;;;5002630;28;20026;-75
2021/05/03 07:50:47;;;;;;;25.65;12.75;;;11.20;99.90;;;;;;5013204;28;20030;-80
2021/05/03 07:53:13;;;;;;;24.13;11.85;;;11.50;99.90;;;;;;5009664;28;20042;-75
2021/05/03 07:55:39;;;;;;;26.40;13.03;;;11.50;99.90;;;;;;5010156;28;20064;-75
2021/05/03 07:58:05;;;;;;;27.73;12.93;;;11.50;99.90;;;;;;5004596;28;20375;-74
2021/05/03 08:00:31;;;;;;;32.33;13.27;;;11.50;99.90;;;;;;4994678;28;20037;-80
2021/05/03 08:02:57;;;;;;;29.50;14.63;;;11.60;99.90;;;;;;5013094;28;20037;-76
2021/05/03 08:05:23;;;;;;;34.30;16.63;;;11.70;99.90;;;;;;5013243;28;20436;-76
2021/05/03 08:07:49;;;;;;;34.33;16.55;;;11.80;99.90;;;;;;5014003;28;20038;-84
2021/05/03 08:10:15;;;;;;;36.10;17.30;;;11.50;99.90;;;;;;5014326;28;20085;-75
2021/05/03 08:12:41;;;;;;;38.40;17.35;;;11.50;99.90;;;;;;4991183;28;20061;-75
2021/05/03 08:15:12;;;;;;;33.93;15.70;;;11.40;99.90;;;;;;5013594;28;20124;-75
2021/05/03 08:17:43;;;;;;;34.25;16.00;;;11.40;99.90;;;;;;4992443;28;20121;-74
2021/05/03 08:20:11;;;;;;;37.55;16.92;;;11.40;99.90;;;;;;4995115;28;20030;-75
2021/05/03 08:22:37;;;;;;;36.47;16.63;;;11.60;99.90;;;;;;5013607;28;20014;-74
2021/05/03 08:25:06;;;;;;;36.53;17.73;;;11.80;99.90;;;;;;5008323;28;20037;-80
2021/05/03 08:27:31;;;;;;;37.78;17.23;;;11.80;99.90;;;;;;4987243;28;20380;-75
2021/05/03 08:29:57;;;;;;;31.87;15.37;;;11.90;99.90;;;;;;4996331;28;20473;-76
2021/05/03 08:32:22;;;;;;;34.63;16.30;;;12.00;99.90;;;;;;5013625;28;20061;-76
2021/05/03 08:34:48;;;;;;;38.13;18.00;;;12.20;99.90;;;;;;4992729;28;20026;-75
2021/05/03 08:37:14;;;;;;;34.23;16.70;;;12.50;99.90;;;;;;4990897;28;20172;-84
2021/05/03 08:39:40;;;;;;;33.97;17.00;;;12.60;99.90;;;;;;5003225;28;20416;-84
2021/05/03 08:42:08;;;;;;;37.13;17.43;;;12.60;99.90;;;;;;4990575;28;20531;-76
2021/05/03 08:44:34;;;;;;;35.28;16.20;;;12.60;99.90;;;;;;4993429;28;20025;-75
2021/05/03 08:47:00;;;;;;;32.60;16.20;;;12.70;99.90;;;;;;5007542;28;20101;-76
2021/05/03 08:50:08;;;;;;;36.30;16.83;;;12.80;99.90;;;;;;4996932;28;20172;-75
2021/05/03 08:54:45;;;;;;;34.10;15.80;;;12.90;99.90;;;;;;5008510;28;20030;-85
2021/05/03 08:57:13;;;;;;;36.65;17.02;;;13.00;99.90;;;;;;4981468;28;20084;-80
2021/05/03 08:59:40;;;;;;;28.90;14.35;;;13.10;99.90;;;;;;5011967;28;20111;-75
2021/05/03 09:02:07;;;;;;;;;;;13.10;99.90;;;;;;5005659;28;20026;-75
2021/05/03 09:04:34;;;;;;;26.55;13.88;;;13.10;99.90;;;;;;5011619;28;19913;-75
2021/05/03 09:07:20;;;;;;;23.40;13.50;;;13.40;99.90;;;;;;5008353;28;20034;-74
2021/05/03 09:09:53;;;;;;;27.02;12.65;;;13.70;99.90;;;;;;4995629;28;20033;-77
2021/05/03 09:12:20;;;;;;;34.58;15.02;;;13.80;99.90;;;;;;4989424;28;20153;-75
2021/05/03 09:14:46;;;;;;;25.50;14.30;;;13.70;99.90;;;;;;4980990;28;20037;-75
2021/05/03 09:17:33;;;;;;;26.60;13.70;;;13.80;99.90;;;;;;5009205;28;20034;-74
2021/05/03 09:20:03;;;;;;;27.98;13.55;;;13.90;99.90;;;;;;5011058;28;20034;-82
2021/05/03 09:22:39;;;;;;;26.77;13.60;;;13.70;99.90;;;;;;5007919;28;20038;-83
2021/05/03 09:25:21;;;;;;;31.75;14.13;;;13.80;99.90;;;;;;4993231;28;20030;-75
2021/05/03 09:27:47;;;;;;;32.33;15.65;;;13.80;99.90;;;;;;5001726;28;20325;-81
2021/05/03 09:30:36;;;;;;;27.38;13.43;;;13.90;99.90;;;;;;4993752;28;20053;-79
2021/05/03 09:33:14;;;;;;;24.50;12.85;;;13.90;99.90;;;;;;5011271;28;20096;-89
2021/05/03 09:36:01;;;;;;;26.00;13.95;;;13.90;99.90;;;;;;5003123;28;20524;-74
2021/05/03 09:38:40;;;;;;;31.27;13.32;;;14.00;99.90;;;;;;5010195;28;20018;-75
2021/05/03 09:41:06;;;;;;;25.73;13.48;;;14.20;99.90;;;;;;4992779;28;20026;-75
2021/05/03 09:43:32;;;;;;;28.00;12.20;;;14.20;99.90;;;;;;5010476;28;20093;-84
2021/05/03 09:45:58;;;;;;;19.77;9.70;;;14.30;99.90;;;;;;5011227;28;20071;-74
2021/05/03 09:48:24;;;;;;;18.40;8.03;;;14.60;99.90;;;;;;5016612;28;20030;-77
2021/05/03 09:50:50;;;;;;;16.47;7.90;;;14.70;99.90;;;;;;5011530;28;20038;-87
2021/05/03 09:53:16;;;;;;;22.50;9.07;;;14.90;99.90;;;;;;5014945;28;20436;-78
2021/05/03 09:55:42;;;;;;;17.17;9.53;;;15.00;99.90;;;;;;4999822;28;20038;-80
2021/05/03 09:58:08;;;;;;;13.33;7.97;;;15.20;99.90;;;;;;4994155;28;20099;-74
2021/05/03 10:00:42;;;;;;;16.25;7.55;;;15.00;99.90;;;;;;5005296;28;20038;-75
2021/05/03 10:03:38;;;;;;;12.40;6.93;;;14.80;99.90;;;;;;4995234;28;20054;-74
2021/05/03 10:06:09;;;;;;;13.20;7.55;;;14.50;99.90;;;;;;5011472;28;20631;-82
2021/05/03 10:08:36;;;;;;;11.25;6.15;;;14.40;99.90;;;;;;5003265;28;20041;-77
2021/05/03 10:11:15;;;;;;;8.90;6.03;;;14.20;99.90;;;;;;5015570;28;20030;-79
2021/05/03 10:13:43;;;;;;;8.15;5.35;;;14.20;99.90;;;;;;4992307;28;20057;-85
2021/05/03 10:16:10;;;;;;;13.57;5.53;;;14.10;99.90;;;;;;5012632;28;20030;-75
2021/05/03 10:18:39;;;;;;;9.25;5.28;;;14.00;99.90;;;;;;5014647;28;20026;-76
2021/05/03 10:21:14;;;;;;;12.75;6.20;;;13.70;99.90;;;;;;5014376;28;20049;-75
2021/05/03 10:23:43;;;;;;;9.60;6.45;;;13.50;99.90;;;;;;5013508;28;20047;-79
2021/05/03 10:26:09;;;;;;;13.63;6.35;;;13.30;99.90;;;;;;5010820;28;20027;-75
2021/05/03 10:28:55;;;;;;;12.80;6.90;;;13.10;99.90;;;;;;4997126;28;20116;-76
2021/05/03 10:31:23;;;;;;;10.20;6.07;;;12.90;99.90;;;;;;4996233;28;20038;-77
2021/05/03 10:33:49;;;;;;;10.30;5.38;;;12.80;99.90;;;;;;4995162;28;20076;-76
2021/05/03 10:36:36;;;;;;;11.35;5.43;;;12.80;99.90;;;;;;4997918;28;20096;-75
2021/05/03 10:39:24;;;;;;;12.38;6.07;;;13.20;99.90;;;;;;5004926;28;20344;-77
2021/05/03 10:42:06;;;;;;;8.60;4.25;;;13.40;99.90;;;;;;5014388;28;20023;-78
2021/05/03 10:44:33;;;;;;;7.22;4.10;;;13.40;99.90;;;;;;4991763;28;20037;-77
2021/05/03 10:47:10;;;;;;;7.28;4.57;;;13.50;99.90;;;;;;5009974;28;20069;-76
2021/05/03 10:49:46;;;;;;;11.18;4.43;;;13.50;99.90;;;;;;4992505;28;20091;-77
2021/05/03 10:52:16;;;;;;;13.73;4.07;;;13.40;99.90;;;;;;4996904;28;20037;-77
2021/05/03 10:54:47;;;;;;;5.22;3.38;;;13.30;99.90;;;;;;5014740;28;20025;-77
2021/05/03 10:57:16;;;;;;;8.88;3.97;;;13.30;99.90;;;;;;5011022;28;20029;-75
2021/05/03 10:59:43;;;;;;;6.40;3.70;;;13.40;99.90;;;;;;5013536;28;20022;-74
2021/05/03 11:02:10;;;;;;;5.53;4.28;;;13.60;99.90;;;;;;5012043;28;20325;-80
2021/05/03 11:04:38;;;;;;;11.98;6.18;;;13.60;99.90;;;;;;5008578;28;20813;-78
2021/05/03 11:07:05;;;;;;;9.60;5.80;;;13.40;99.90;;;;;;4996228;28;20044;-83
2021/05/03 11:09:33;;;;;;;;;;;13.20;99.90;;;;;;4998116;28;20033;-78
2021/05/03 11:11:59;;;;;;;7.65;3.70;;;13.00;99.90;;;;;;5011663;28;20028;-75
2021/05/03 11:14:29;;;;;;;5.57;3.73;;;13.00;99.90;;;;;;5012164;28;20072;-88
2021/05/03 11:17:12;;;;;;;9.23;4.10;;;13.00;99.90;;;;;;4995897;28;20034;-85
2021/05/03 11:20:17;;;;;;;10.23;4.15;;;13.10;99.90;;;;;;4997621;28;20022;-87
2021/05/03 11:23:03;;;;;;;8.23;4.43;;;13.40;99.90;;;;;;5015094;28;20025;-87
2021/05/03 11:25:33;;;;;;;10.10;5.03;;;13.70;99.90;;;;;;4996907;28;20033;-75
2021/05/03 11:30:44;;;;;;;9.50;5.25;;;13.80;99.90;;;;;;5010741;28;20092;-77
2021/05/03 11:33:16;;;;;;;17.00;5.60;;;13.80;99.90;;;;;;4996514;28;20030;-74
2021/05/03 11:36:04;;;;;;;7.30;4.57;;;13.70;99.90;;;;;;4997297;28;20425;-77
2021/05/03 11:41:19;;;;;;;4.37;3.10;;;13.80;99.90;;;;;;5011447;28;20058;-77
2021/05/03 11:46:13;;;;;;;5.90;2.73;;;13.40;99.90;;;;;;5014845;28;20414;-75
2021/05/03 11:48:38;;;;;;;4.78;3.00;;;13.30;99.90;;;;;;4997600;28;20034;-76
2021/05/03 11:51:07;;;;;;;8.27;3.37;;;13.30;99.90;;;;;;4997042;28;20033;-76
2021/05/03 11:53:41;;;;;;;5.70;3.38;;;13.40;99.90;;;;;;5015585;28;20022;-75
2021/05/03 11:56:23;;;;;;;6.78;4.75;;;13.50;99.90;;;;;;4995437;28;20138;-79
2021/05/03 11:58:57;;;;;;;6.63;3.63;;;13.60;99.90;;;;;;4994242;28;20029;-78
2021/05/03 12:01:25;;;;;;;4.57;3.38;;;13.70;99.90;;;;;;4996840;28;20034;-78
2021/05/03 12:03:57;;;;;;;7.97;3.33;;;13.80;99.90;;;;;;4989745;28;20097;-76
2021/05/03 12:06:32;;;;;;;4.93;2.78;;;13.80;99.90;;;;;;4989741;28;20030;-83
2021/05/03 12:09:16;;;;;;;8.90;3.35;;;13.60;99.90;;;;;;5007153;28;20362;-76
2021/05/03 12:11:56;;;;;;;6.72;2.95;;;13.50;99.90;;;;;;4989702;28;20018;-77
2021/05/03 12:14:39;;;;;;;4.88;3.10;;;13.40;99.90;;;;;;5008980;28;20029;-77
2021/05/03 12:17:25;;;;;;;6.32;3.50;;;13.30;99.90;;;;;;5013001;28;20034;-88
2021/05/03 12:19:57;;;;;;;4.93;2.95;;;13.40;99.90;;;;;;5007429;28;20023;-89
2021/05/03 12:22:24;;;;;;;6.32;3.60;;;13.60;99.90;;;;;;4988124;28;20030;-84
2021/05/03 12:24:51;;;;;;;9.18;4.47;;;13.90;99.90;;;;;;4993831;28;20376;-77
2021/05/03 12:27:17;;;;;;;6.63;4.03;;;14.10;99.90;;;;;;4997818;28;20038;-90
2021/05/03 12:29:46;;;;;;;8.60;4.35;;;14.50;99.90;;;;;;4993316;28;20046;-75
2021/05/03 12:32:17;;;;;;;7.05;3.33;;;14.90;99.90;;;;;;5008048;28;20025;-81
2021/05/03 12:34:48;;;;;;;11.02;4.30;;;15.10;99.90;;;;;;5010954;28;20023;-83
2021/05/03 12:37:19;;;;;;;6.85;3.80;;;15.00;99.90;;;;;;4991217;28;20034;-81
2021/05/03 12:40:08;;;;;;;6.30;4.03;;;15.10;99.90;;;;;;4986427;28;20025;-76
2021/05/03 12:43:04;;;;;;;10.88;4.90;;;15.30;99.90;;;;;;5002331;28;20030;-80
2021/05/03 12:45:44;;;;;;;6.35;4.00;;;15.20;99.90;;;;;;4989668;28;20046;-81
2021/05/03 12:59:14;;;;;;;7.88;4.05;;;15.00;99.90;;;;;;5010870;28;20424;-80
2021/05/03 13:10:18;;;;;;;7.07;3.73;;;15.40;99.90;;;;;;5012723;28;20034;-78
2021/05/03 13:29:16;;;;;;;8.38;4.40;;;15.30;99.80;;;;;;5010129;28;20188;-76
2021/05/03 13:31:44;;;;;;;9.00;4.40;;;15.30;99.80;;;;;;5015554;28;20117;-82
2021/05/03 13:34:15;;;;;;;8.35;4.50;;;15.40;99.90;;;;;;4996192;28;20301;-78
2021/05/03 13:36:47;;;;;;;7.00;4.78;;;15.40;99.90;;;;;;4997090;28;20030;-79
2021/05/03 13:39:14;;;;;;;10.55;4.97;;;15.40;99.90;;;;;;4998042;28;20077;-77
2021/05/03 13:41:42;;;;;;;10.18;5.50;;;15.40;99.90;;;;;;5017411;28;20079;-80
2021/05/03 13:44:09;;;;;;;15.93;6.55;;;15.20;99.90;;;;;;5017161;28;20068;-81
2021/05/03 13:46:36;;;;;;;10.52;6.30;;;15.00;99.90;;;;;;5014058;28;20034;-79
2021/05/03 13:49:04;;;;;;;10.90;7.05;;;14.80;99.90;;;;;;4998223;28;20141;-79
2021/05/03 13:51:30;;;;;;;10.95;7.18;;;14.80;99.90;;;;;;5019286;28;20333;-80
2021/05/03 13:53:56;;;;;;;15.83;8.03;;;14.60;99.90;;;;;;5001899;28;20037;-75
2021/05/03 13:56:22;;;;;;;11.43;7.70;;;14.60;99.90;;;;;;5013456;28;20468;-76